Terminal Aerodrome Forecast
Issued by NWS

Home | Current Version | Previous Version | Text Only | Print | Product List | Glossary On
Versions: 1 2 3 4 5 6 7 8 9 10 11 12 13 14 15
221
FTUS43 KGRR 251740
TAFAZO
TAF
KAZO 251740Z 2518/2618 25012KT P6SM VCTS BKN035CB
     FM252000 29005KT P6SM SCT040 BKN150
     FM261000 31003KT 5SM BR SCT040 BKN150
     FM261200 32008KT P6SM FEW250=

USA.gov is the U.S. government's official web portal to all federal, state and local government web resources and services.